Time;durP1;ratioP1;P1;durP2;ratioP2;P2;SDS_P1;SDS_P2;PMS_P1;PMS_P2;Temp;Humidity;BMP_temperature;BMP_pressure;BME280_temperature;BME280_humidity;BME280_pressure;Samples;Min_cycle;Max_cycle;Signal;HPM_P1;HPM_P2
2023/10/19 00:00:19;;;;;;;19.50;12.68;;;;;;;;;;7401118;19;20329;-75
2023/10/19 00:02:46;;;;;;;18.73;12.43;;;;;;;;;;7376813;19;20003;-75
2023/10/19 00:05:14;;;;;;;20.27;12.73;;;;;;;;;;7376331;19;20006;-75
2023/10/19 00:07:39;;;;;;;20.25;13.45;;;;;;;;;;7380194;19;20115;-75
2023/10/19 00:10:06;;;;;;;21.45;13.05;;;;;;;;;;7378820;19;20042;-75
2023/10/19 00:12:32;;;;;;;27.38;14.30;;;;;;;;;;7398481;19;20042;-74
2023/10/19 00:14:57;;;;;;;21.42;13.75;;;;;;;;;;7369660;19;20014;-74
2023/10/19 00:17:23;;;;;;;21.52;13.77;;;;;;;;;;7369736;19;20015;-75
2023/10/19 00:20:03;;;;;;;18.20;13.85;;;;;;;;;;7368920;19;20005;-75
2023/10/19 00:22:30;;;;;;;18.13;13.27;;;;;;;;;;7367402;19;20084;-75
2023/10/19 00:24:56;;;;;;;23.05;14.93;;;;;;;;;;7367801;19;20210;-75
2023/10/19 00:27:23;;;;;;;24.70;15.18;;;;;;;;;;7390348;19;20002;-75
2023/10/19 00:29:49;;;;;;;24.20;15.52;;;;;;;;;;7367170;19;20066;-75
2023/10/19 00:32:15;;;;;;;24.80;16.13;;;;;;;;;;7367134;19;20006;-76
2023/10/19 00:34:43;;;;;;;24.85;16.63;;;;;;;;;;7366813;19;20686;-75
2023/10/19 00:37:09;;;;;;;25.95;16.42;;;;;;;;;;7367744;19;20014;-76
2023/10/19 00:39:50;;;;;;;25.13;16.75;;;;;;;;;;7379857;19;20006;-76
2023/10/19 00:42:20;;;;;;;25.33;16.45;;;;;;;;;;7389517;19;20575;-76
2023/10/19 00:44:50;;;;;;;25.95;16.63;;;;;;;;;;7367013;19;20515;-76
2023/10/19 00:47:18;;;;;;;24.23;16.15;;;;;;;;;;7366574;19;20069;-76
2023/10/19 00:49:45;;;;;;;27.10;16.38;;;;;;;;;;7367490;19;20103;-75
2023/10/19 00:52:11;;;;;;;26.17;16.67;;;;;;;;;;7364620;19;20002;-75
2023/10/19 00:54:50;;;;;;;27.25;16.85;;;;;;;;;;7366127;19;20002;-75
2023/10/19 00:57:20;;;;;;;28.13;17.10;;;;;;;;;;7387974;19;20453;-75
2023/10/19 00:59:54;;;;;;;27.00;17.33;;;;;;;;;;7366319;19;20006;-76
2023/10/19 01:02:21;;;;;;;26.40;17.23;;;;;;;;;;7365240;19;20533;-76
2023/10/19 01:05:04;;;;;;;25.00;17.45;;;;;;;;;;7364974;19;20007;-76
2023/10/19 01:07:30;;;;;;;27.00;17.70;;;;;;;;;;7366088;19;20093;-76
2023/10/19 01:10:00;;;;;;;30.17;17.00;;;;;;;;;;7365880;19;20388;-76
2023/10/19 01:15:06;;;;;;;26.85;18.30;;;;;;;;;;7363975;19;20010;-75
2023/10/19 01:17:34;;;;;;;27.08;17.60;;;;;;;;;;7366488;19;20081;-75
2023/10/19 01:20:01;;;;;;;27.50;17.48;;;;;;;;;;7365163;19;20031;-75
2023/10/19 01:22:26;;;;;;;28.58;18.10;;;;;;;;;;7364307;19;20014;-76
2023/10/19 01:24:54;;;;;;;31.35;20.15;;;;;;;;;;7367248;19;20003;-76
2023/10/19 01:27:20;;;;;;;32.45;19.77;;;;;;;;;;7389086;19;20306;-75
2023/10/19 01:29:45;;;;;;;32.35;20.33;;;;;;;;;;7366613;19;20086;-75
2023/10/19 01:32:15;;;;;;;33.58;21.05;;;;;;;;;;7365705;19;20044;-76
2023/10/19 01:34:40;;;;;;;36.40;20.10;;;;;;;;;;7363942;19;20018;-76
2023/10/19 01:37:05;;;;;;;36.78;21.02;;;;;;;;;;7365784;19;20011;-76
2023/10/19 01:39:34;;;;;;;36.90;20.80;;;;;;;;;;7386783;19;20005;-74
2023/10/19 01:42:01;;;;;;;33.20;20.10;;;;;;;;;;7360056;19;20397;-75
2023/10/19 01:44:26;;;;;;;33.70;20.85;;;;;;;;;;7360574;19;20138;-75
2023/10/19 01:46:52;;;;;;;36.75;20.33;;;;;;;;;;7362093;19;20094;-75
2023/10/19 01:49:26;;;;;;;43.08;24.15;;;;;;;;;;7362751;19;20027;-75
2023/10/19 01:51:53;;;;;;;39.95;22.05;;;;;;;;;;7361757;19;20031;-74
2023/10/19 01:54:22;;;;;;;33.72;21.50;;;;;;;;;;7382935;19;20361;-74
2023/10/19 01:56:50;;;;;;;39.40;22.40;;;;;;;;;;7362376;19;20011;-75
2023/10/19 01:59:16;;;;;;;36.22;22.08;;;;;;;;;;7365658;19;20601;-75
2023/10/19 02:01:44;;;;;;;35.05;21.85;;;;;;;;;;7364460;19;20006;-75
2023/10/19 02:04:13;;;;;;;40.13;23.45;;;;;;;;;;7365065;19;20011;-75
2023/10/19 02:06:40;;;;;;;38.40;23.42;;;;;;;;;;7372214;19;20511;-75
2023/10/19 02:09:30;;;;;;;39.00;22.30;;;;;;;;;;7393296;19;20006;-75
2023/10/19 02:11:57;;;;;;;40.10;22.67;;;;;;;;;;7371544;19;20014;-75
2023/10/19 02:14:25;;;;;;;39.90;23.02;;;;;;;;;;7369904;19;20006;-75
2023/10/19 02:16:59;;;;;;;37.80;22.75;;;;;;;;;;7371745;19;20013;-75
2023/10/19 02:19:26;;;;;;;37.50;21.45;;;;;;;;;;7371396;19;20006;-75
2023/10/19 02:22:11;;;;;;;37.60;22.15;;;;;;;;;;7370320;19;20019;-75
2023/10/19 02:24:38;;;;;;;29.85;19.58;;;;;;;;;;7370508;19;20041;-75
2023/10/19 02:27:04;;;;;;;36.28;21.33;;;;;;;;;;7392383;19;20003;-75
2023/10/19 02:29:30;;;;;;;36.58;20.90;;;;;;;;;;7370686;19;20074;-73
2023/10/19 02:31:56;;;;;;;38.70;21.90;;;;;;;;;;7370816;19;20007;-75
2023/10/19 02:34:22;;;;;;;40.85;23.77;;;;;;;;;;7370441;19;20018;-76
2023/10/19 02:36:48;;;;;;;52.38;25.63;;;;;;;;;;7371815;19;20121;-76
2023/10/19 02:39:14;;;;;;;42.00;23.92;;;;;;;;;;7387850;19;20050;-76
2023/10/19 02:41:43;;;;;;;40.10;22.95;;;;;;;;;;7368522;19;20010;-76
2023/10/19 02:44:22;;;;;;;43.22;23.25;;;;;;;;;;7368809;19;20504;-75
2023/10/19 02:46:58;;;;;;;40.05;24.00;;;;;;;;;;7370535;19;20508;-76
2023/10/19 02:49:25;;;;;;;46.70;23.65;;;;;;;;;;7370436;19;20047;-75
2023/10/19 02:51:52;;;;;;;42.33;23.13;;;;;;;;;;7368896;19;20020;-76
2023/10/19 02:54:20;;;;;;;37.70;23.60;;;;;;;;;;7390758;19;20353;-75
2023/10/19 02:56:49;;;;;;;38.20;23.25;;;;;;;;;;7369524;19;20041;-76
2023/10/19 02:59:16;;;;;;;46.03;24.75;;;;;;;;;;7369539;19;20005;-76
2023/10/19 03:01:45;;;;;;;42.53;23.85;;;;;;;;;;7369230;19;20065;-76
2023/10/19 03:04:12;;;;;;;41.00;24.17;;;;;;;;;;7368390;19;20003;-76
2023/10/19 03:06:38;;;;;;;45.35;24.75;;;;;;;;;;7370443;19;20011;-76
2023/10/19 03:09:12;;;;;;;47.22;24.83;;;;;;;;;;7390569;19;20033;-76
2023/10/19 03:11:40;;;;;;;50.38;26.60;;;;;;;;;;7369195;19;20378;-76
2023/10/19 03:14:06;;;;;;;44.60;25.98;;;;;;;;;;7367628;19;20507;-75
2023/10/19 03:16:31;;;;;;;53.40;27.42;;;;;;;;;;7369951;19;20031;-75
2023/10/19 03:18:57;;;;;;;54.20;27.63;;;;;;;;;;7369480;19;20371;-76
2023/10/19 03:21:32;;;;;;;51.38;27.08;;;;;;;;;;7388743;19;20007;-76
2023/10/19 03:23:59;;;;;;;45.88;25.73;;;;;;;;;;7366118;19;19999;-76
2023/10/19 03:26:30;;;;;;;47.75;25.77;;;;;;;;;;7370724;19;20010;-76
2023/10/19 03:29:08;;;;;;;45.33;26.30;;;;;;;;;;7373246;19;20006;-76
2023/10/19 03:31:43;;;;;;;53.80;27.95;;;;;;;;;;7373346;19;20022;-75
2023/10/19 03:34:09;;;;;;;50.20;25.38;;;;;;;;;;7370064;19;20433;-75
2023/10/19 03:36:35;;;;;;;45.70;25.83;;;;;;;;;;7389189;19;20006;-75
2023/10/19 03:39:11;;;;;;;49.75;26.50;;;;;;;;;;7378350;19;20002;-75
2023/10/19 03:41:37;;;;;;;44.53;26.95;;;;;;;;;;7365977;19;20014;-75
2023/10/19 03:44:03;;;;;;;54.45;27.75;;;;;;;;;;7365202;19;20010;-74
2023/10/19 03:46:30;;;;;;;50.83;27.27;;;;;;;;;;7368977;19;20034;-75
2023/10/19 03:49:03;;;;;;;51.28;28.65;;;;;;;;;;7369703;19;20479;-75
2023/10/19 03:51:39;;;;;;;49.67;27.88;;;;;;;;;;7390595;19;20005;-75
2023/10/19 03:54:14;;;;;;;46.83;26.55;;;;;;;;;;7368653;19;20015;-75
2023/10/19 03:56:41;;;;;;;56.35;27.27;;;;;;;;;;7367326;19;20006;-75
2023/10/19 03:59:06;;;;;;;51.88;26.35;;;;;;;;;;7367605;19;20007;-75
2023/10/19 04:01:32;;;;;;;43.90;25.50;;;;;;;;;;7367109;19;20010;-75
2023/10/19 04:03:57;;;;;;;55.53;29.27;;;;;;;;;;7365383;19;20010;-75
2023/10/19 04:06:23;;;;;;;54.78;29.20;;;;;;;;;;7389650;19;20476;-75
2023/10/19 04:08:50;;;;;;;57.70;31.42;;;;;;;;;;7366595;19;20021;-75
2023/10/19 04:11:23;;;;;;;52.50;29.88;;;;;;;;;;7365953;19;20005;-75
2023/10/19 04:13:52;;;;;;;55.90;29.40;;;;;;;;;;7365999;19;20007;-74
2023/10/19 04:16:18;;;;;;;56.72;31.40;;;;;;;;;;7367533;19;20118;-75
2023/10/19 04:18:44;;;;;;;58.92;31.20;;;;;;;;;;7367170;19;20002;-75
2023/10/19 04:21:09;;;;;;;56.15;29.38;;;;;;;;;;7388054;19;19995;-75
2023/10/19 04:23:34;;;;;;;59.80;30.50;;;;;;;;;;7364245;19;20686;-75
2023/10/19 04:26:05;;;;;;;60.38;31.58;;;;;;;;;;7367252;19;20010;-75
2023/10/19 04:28:30;;;;;;;62.37;31.73;;;;;;;;;;7365971;19;20030;-74
2023/10/19 04:31:02;;;;;;;62.20;31.35;;;;;;;;;;7364730;19;20042;-75
2023/10/19 04:33:29;;;;;;;52.55;29.75;;;;;;;;;;7385085;19;20658;-74
2023/10/19 04:35:55;;;;;;;52.60;28.63;;;;;;;;;;7366463;19;20132;-76
2023/10/19 04:38:22;;;;;;;57.42;30.08;;;;;;;;;;7365147;19;20009;-76
2023/10/19 04:40:47;;;;;;;62.85;31.33;;;;;;;;;;7362246;19;20010;-76
2023/10/19 04:43:12;;;;;;;65.70;31.85;;;;;;;;;;7362926;19;20093;-77
2023/10/19 04:45:40;;;;;;;62.88;32.28;;;;;;;;;;7364061;19;20002;-76
2023/10/19 04:48:06;;;;;;;53.92;29.25;;;;;;;;;;7384842;19;19994;-76
2023/10/19 04:50:31;;;;;;;60.03;30.83;;;;;;;;;;7359245;19;20415;-77
2023/10/19 04:52:56;;;;;;;57.13;31.83;;;;;;;;;;7363092;19;20073;-74
2023/10/19 04:55:22;;;;;;;58.90;32.28;;;;;;;;;;7360753;19;20451;-75
2023/10/19 04:57:47;;;;;;;64.18;35.88;;;;;;;;;;7359271;19;20006;-75
2023/10/19 05:00:16;;;;;;;76.45;38.45;;;;;;;;;;7386946;19;20587;-75
2023/10/19 05:02:42;;;;;;;85.45;40.85;;;;;;;;;;7362870;19;20005;-76
2023/10/19 05:05:08;;;;;;;84.10;41.53;;;;;;;;;;7362776;19;20002;-76
2023/10/19 05:07:34;;;;;;;90.93;41.90;;;;;;;;;;7363635;19;20614;-75
2023/10/19 05:09:59;;;;;;;88.55;41.88;;;;;;;;;;7363428;19;20035;-76
2023/10/19 05:12:24;;;;;;;93.53;45.28;;;;;;;;;;7387736;19;20010;-76
2023/10/19 05:14:50;;;;;;;93.18;43.70;;;;;;;;;;7355623;19;20634;-76
2023/10/19 05:17:15;;;;;;;92.03;44.40;;;;;;;;;;7356748;19;20025;-76
2023/10/19 05:19:41;;;;;;;89.63;41.28;;;;;;;;;;7362976;19;20018;-76
2023/10/19 05:22:08;;;;;;;93.40;41.95;;;;;;;;;;7359946;19;20539;-76
2023/10/19 05:24:33;;;;;;;100.80;45.55;;;;;;;;;;7386999;19;20033;-76
2023/10/19 05:26:59;;;;;;;92.57;43.28;;;;;;;;;;7368569;19;20792;-77
2023/10/19 05:29:24;;;;;;;97.18;42.67;;;;;;;;;;7377441;19;20021;-76
2023/10/19 05:31:53;;;;;;;104.75;46.28;;;;;;;;;;7380402;19;20469;-77
2023/10/19 05:34:22;;;;;;;94.63;42.45;;;;;;;;;;7380493;19;20119;-77
2023/10/19 05:36:51;;;;;;;102.70;45.92;;;;;;;;;;7381559;19;20002;-77
2023/10/19 05:39:16;;;;;;;103.50;43.47;;;;;;;;;;7404473;19;19999;-77
2023/10/19 05:41:42;;;;;;;108.03;43.80;;;;;;;;;;7375000;19;19999;-77
2023/10/19 05:44:08;;;;;;;98.78;42.05;;;;;;;;;;7232262;19;2779580;-77
2023/10/19 05:46:33;;;;;;;100.90;43.63;;;;;;;;;;7375484;19;20002;-77
2023/10/19 05:48:59;;;;;;;100.43;42.47;;;;;;;;;;7376057;19;20006;-77
2023/10/19 05:51:24;;;;;;;115.28;44.17;;;;;;;;;;7394107;19;20476;-77
2023/10/19 05:53:50;;;;;;;108.03;44.00;;;;;;;;;;7368224;19;20014;-77
2023/10/19 05:56:17;;;;;;;103.65;42.10;;;;;;;;;;7372352;19;20648;-77
2023/10/19 05:58:42;;;;;;;104.63;42.42;;;;;;;;;;7371300;19;20104;-77
2023/10/19 06:01:08;;;;;;;98.13;41.20;;;;;;;;;;7371226;19;20010;-77
2023/10/19 06:03:33;;;;;;;102.95;39.97;;;;;;;;;;7391041;19;20014;-77
2023/10/19 06:05:58;;;;;;;109.88;41.15;;;;;;;;;;7371549;19;20025;-77
2023/10/19 06:08:24;;;;;;;92.43;39.38;;;;;;;;;;7370623;19;20070;-76
2023/10/19 06:10:52;;;;;;;77.72;37.65;;;;;;;;;;7368957;19;20002;-78
2023/10/19 06:13:18;;;;;;;83.25;37.83;;;;;;;;;;7365111;19;20010;-76
2023/10/19 06:15:44;;;;;;;88.55;39.25;;;;;;;;;;7365055;19;20010;-76
2023/10/19 06:18:10;;;;;;;84.50;38.90;;;;;;;;;;7386749;19;20002;-76
2023/10/19 06:20:36;;;;;;;102.45;41.60;;;;;;;;;;7364087;19;20007;-76
2023/10/19 06:23:05;;;;;;;108.85;43.35;;;;;;;;;;7363809;19;20034;-76
2023/10/19 06:25:32;;;;;;;111.43;43.35;;;;;;;;;;7369961;19;20046;-78
2023/10/19 06:27:59;;;;;;;112.38;43.58;;;;;;;;;;7368989;19;20060;-77
2023/10/19 06:30:25;;;;;;;103.68;42.50;;;;;;;;;;7393155;19;20010;-76
2023/10/19 06:32:53;;;;;;;97.60;40.97;;;;;;;;;;7376155;19;20014;-76
2023/10/19 06:35:20;;;;;;;103.30;41.22;;;;;;;;;;7370781;19;20436;-76
2023/10/19 06:37:46;;;;;;;105.60;39.00;;;;;;;;;;7372345;19;20018;-77
2023/10/19 06:40:14;;;;;;;91.60;39.75;;;;;;;;;;7372131;19;20015;-77
2023/10/19 06:42:41;;;;;;;101.35;40.80;;;;;;;;;;7369837;19;20002;-76
2023/10/19 06:45:07;;;;;;;92.93;39.00;;;;;;;;;;7392528;19;19995;-76
2023/10/19 06:47:37;;;;;;;95.70;39.38;;;;;;;;;;7374918;19;20006;-77
2023/10/19 06:50:05;;;;;;;90.88;39.28;;;;;;;;;;7369195;19;20403;-76
2023/10/19 06:52:32;;;;;;;96.63;39.10;;;;;;;;;;7370709;19;20003;-77
2023/10/19 06:54:57;;;;;;;95.10;38.70;;;;;;;;;;7374033;19;20531;-77
2023/10/19 06:57:23;;;;;;;100.13;38.20;;;;;;;;;;7396219;19;20015;-76
2023/10/19 06:59:48;;;;;;;96.68;39.90;;;;;;;;;;7373136;19;20006;-76
2023/10/19 07:02:13;;;;;;;87.97;37.45;;;;;;;;;;7368759;19;20002;-76
2023/10/19 07:04:38;;;;;;;93.93;38.08;;;;;;;;;;7368190;19;20049;-76
2023/10/19 07:07:04;;;;;;;84.20;38.05;;;;;;;;;;7369992;19;20006;-76
2023/10/19 07:09:29;;;;;;;85.07;37.22;;;;;;;;;;7391906;19;20127;-76
2023/10/19 07:11:56;;;;;;;93.15;39.72;;;;;;;;;;7369705;19;20006;-77
2023/10/19 07:14:24;;;;;;;99.22;40.13;;;;;;;;;;7368422;19;20062;-77
2023/10/19 07:16:51;;;;;;;101.53;39.90;;;;;;;;;;7370631;19;21023;-76
2023/10/19 07:19:17;;;;;;;89.70;37.90;;;;;;;;;;7368299;19;20033;-76
2023/10/19 07:21:48;;;;;;;84.10;36.47;;;;;;;;;;7367415;19;20033;-77
2023/10/19 07:24:18;;;;;;;84.68;36.67;;;;;;;;;;7391275;19;20006;-76
2023/10/19 07:26:53;;;;;;;86.40;37.22;;;;;;;;;;7370307;19;20027;-76
2023/10/19 07:29:19;;;;;;;96.47;38.72;;;;;;;;;;7370234;19;20019;-76
2023/10/19 07:31:44;;;;;;;94.88;39.08;;;;;;;;;;7369698;19;20337;-77
2023/10/19 07:34:12;;;;;;;96.05;38.35;;;;;;;;;;7369007;19;20054;-76
2023/10/19 07:36:38;;;;;;;92.78;37.08;;;;;;;;;;7369473;19;20088;-76
2023/10/19 07:39:04;;;;;;;101.45;38.33;;;;;;;;;;7390788;19;20002;-75
2023/10/19 07:41:35;;;;;;;93.63;37.45;;;;;;;;;;7367061;19;20028;-75
2023/10/19 07:44:00;;;;;;;94.97;38.10;;;;;;;;;;7367681;19;20046;-76
2023/10/19 07:46:25;;;;;;;76.63;35.08;;;;;;;;;;7368839;19;20030;-75
2023/10/19 07:48:52;;;;;;;76.07;35.72;;;;;;;;;;7369926;19;20025;-77
2023/10/19 07:51:18;;;;;;;70.40;34.03;;;;;;;;;;7391728;19;20010;-76
2023/10/19 07:53:44;;;;;;;69.07;32.03;;;;;;;;;;7365258;19;20023;-76
2023/10/19 07:56:09;;;;;;;64.95;32.85;;;;;;;;;;7368772;19;20007;-76
2023/10/19 07:58:34;;;;;;;61.95;31.80;;;;;;;;;;7367816;19;20010;-76
2023/10/19 08:01:01;;;;;;;63.03;31.92;;;;;;;;;;7366686;19;20709;-76
2023/10/19 08:03:26;;;;;;;52.45;27.85;;;;;;;;;;7386334;19;20582;-76
2023/10/19 08:05:52;;;;;;;54.05;28.80;;;;;;;;;;7366980;19;20010;-75
2023/10/19 08:08:17;;;;;;;59.47;30.83;;;;;;;;;;7366408;19;20086;-76
2023/10/19 08:10:43;;;;;;;58.92;29.80;;;;;;;;;;7365673;19;20444;-76
2023/10/19 08:13:08;;;;;;;51.40;29.08;;;;;;;;;;7364856;19;20095;-75
2023/10/19 08:15:34;;;;;;;59.22;31.05;;;;;;;;;;7388869;19;20002;-76
2023/10/19 08:17:59;;;;;;;52.53;29.02;;;;;;;;;;7368915;19;20013;-75
2023/10/19 08:20:27;;;;;;;52.70;29.23;;;;;;;;;;7369202;19;20010;-76
2023/10/19 08:22:54;;;;;;;56.13;30.00;;;;;;;;;;7367967;19;20014;-76
2023/10/19 08:25:20;;;;;;;52.38;29.52;;;;;;;;;;7367879;19;20458;-76
2023/10/19 08:27:49;;;;;;;49.85;27.63;;;;;;;;;;7368511;19;20010;-75
2023/10/19 08:30:20;;;;;;;52.75;27.92;;;;;;;;;;7389871;19;20006;-75
2023/10/19 08:32:49;;;;;;;54.25;29.13;;;;;;;;;;7367640;19;20014;-76
2023/10/19 08:35:18;;;;;;;53.17;28.15;;;;;;;;;;7375167;19;20015;-76
2023/10/19 08:37:45;;;;;;;50.38;28.63;;;;;;;;;;7374937;19;20020;-76
2023/10/19 08:40:14;;;;;;;48.88;28.70;;;;;;;;;;7372085;19;20018;-76
2023/10/19 08:42:45;;;;;;;45.25;27.13;;;;;;;;;;7368734;19;20371;-76
2023/10/19 08:45:12;;;;;;;39.85;25.33;;;;;;;;;;7391875;19;20082;-76
2023/10/19 08:47:43;;;;;;;39.22;24.75;;;;;;;;;;7368551;19;20456;-76
2023/10/19 08:50:09;;;;;;;45.10;26.48;;;;;;;;;;7368351;19;20343;-76
2023/10/19 08:52:36;;;;;;;42.63;26.73;;;;;;;;;;7367980;19;20007;-77
2023/10/19 08:55:01;;;;;;;40.63;24.17;;;;;;;;;;7368277;19;20035;-76
2023/10/19 08:57:28;;;;;;;37.25;23.30;;;;;;;;;;7388122;19;20010;-76
2023/10/19 08:59:56;;;;;;;35.65;23.70;;;;;;;;;;7367258;19;20430;-76
2023/10/19 09:02:24;;;;;;;41.58;23.73;;;;;;;;;;7366651;19;20011;-76
2023/10/19 09:04:49;;;;;;;40.17;24.98;;;;;;;;;;7366447;19;20007;-77
2023/10/19 09:07:16;;;;;;;45.03;26.48;;;;;;;;;;7368750;19;20089;-77
2023/10/19 09:09:41;;;;;;;45.70;25.88;;;;;;;;;;7366759;19;20014;-76
2023/10/19 09:12:08;;;;;;;38.40;23.83;;;;;;;;;;7389487;19;20024;-76
2023/10/19 09:14:43;;;;;;;41.40;25.55;;;;;;;;;;7366642;19;20405;-77
2023/10/19 09:17:10;;;;;;;33.30;23.13;;;;;;;;;;7367167;19;20039;-76
2023/10/19 09:19:41;;;;;;;37.42;24.02;;;;;;;;;;7365761;19;20018;-76
2023/10/19 09:22:16;;;;;;;34.72;22.38;;;;;;;;;;7365355;19;20416;-76
2023/10/19 09:24:42;;;;;;;39.13;23.88;;;;;;;;;;7367629;19;20013;-76
2023/10/19 09:27:07;;;;;;;32.60;22.63;;;;;;;;;;7388757;19;20634;-76
2023/10/19 09:29:33;;;;;;;32.15;22.13;;;;;;;;;;7368292;19;20011;-75
2023/10/19 09:32:03;;;;;;;34.60;23.40;;;;;;;;;;7367512;19;20018;-76
2023/10/19 09:34:32;;;;;;;33.57;23.30;;;;;;;;;;7366920;19;20515;-76
2023/10/19 09:37:02;;;;;;;32.25;23.02;;;;;;;;;;7367776;19;20014;-75
2023/10/19 09:39:34;;;;;;;33.15;24.23;;;;;;;;;;7389264;19;20021;-75
2023/10/19 09:42:05;;;;;;;31.90;22.05;;;;;;;;;;7364945;19;20469;-75
2023/10/19 09:44:39;;;;;;;34.70;22.90;;;;;;;;;;7366153;19;20357;-76
2023/10/19 09:47:10;;;;;;;35.75;21.88;;;;;;;;;;7368426;19;20015;-76
2023/10/19 09:49:36;;;;;;;;;;;;;;;;;;7366628;19;20014;-74
2023/10/19 09:52:04;;;;;;;32.47;21.55;;;;;;;;;;7366699;19;19925;-76
2023/10/19 09:54:52;;;;;;;31.15;21.20;;;;;;;;;;7386954;19;20074;-75
2023/10/19 09:57:25;;;;;;;32.78;23.25;;;;;;;;;;7366913;19;20010;-75
2023/10/19 09:59:59;;;;;;;32.60;21.45;;;;;;;;;;7366774;19;20948;-76
2023/10/19 10:02:25;;;;;;;34.10;23.48;;;;;;;;;;7366793;19;20740;-76
2023/10/19 10:04:51;;;;;;;32.53;22.73;;;;;;;;;;7366420;19;20507;-75
2023/10/19 10:07:18;;;;;;;33.33;23.83;;;;;;;;;;7372825;19;20007;-75
2023/10/19 10:09:46;;;;;;;36.92;24.65;;;;;;;;;;7382336;19;20470;-77
2023/10/19 10:12:30;;;;;;;33.97;23.75;;;;;;;;;;7401897;19;20006;-76
2023/10/19 10:14:59;;;;;;;34.63;23.08;;;;;;;;;;7378613;19;20030;-76
2023/10/19 10:17:26;;;;;;;33.28;23.38;;;;;;;;;;7378918;19;20010;-75
2023/10/19 10:20:13;;;;;;;29.85;21.88;;;;;;;;;;7371623;19;20743;-75
2023/10/19 10:22:41;;;;;;;29.25;21.67;;;;;;;;;;7363864;19;20063;-76
2023/10/19 10:25:07;;;;;;;30.20;21.95;;;;;;;;;;7365247;19;20017;-75
2023/10/19 10:27:35;;;;;;;30.83;22.05;;;;;;;;;;7395997;19;20083;-75
2023/10/19 10:30:07;;;;;;;28.45;19.70;;;;;;;;;;7372768;19;20003;-75
2023/10/19 10:32:50;;;;;;;25.85;20.23;;;;;;;;;;7373136;19;20454;-75
2023/10/19 10:35:38;;;;;;;25.65;18.83;;;;;;;;;;7372548;19;20030;-75
2023/10/19 10:38:09;;;;;;;23.27;17.70;;;;;;;;;;7372691;19;20050;-75
2023/10/19 10:40:44;;;;;;;25.13;18.42;;;;;;;;;;7370740;19;20471;-76
2023/10/19 10:43:13;;;;;;;23.55;18.30;;;;;;;;;;7369031;19;20044;-76
2023/10/19 10:45:38;;;;;;;32.75;21.15;;;;;;;;;;7372188;19;20543;-74
2023/10/19 10:48:04;;;;;;;24.33;19.73;;;;;;;;;;7392602;19;20015;-75
2023/10/19 10:50:29;;;;;;;34.53;21.30;;;;;;;;;;7369805;19;20011;-74
2023/10/19 10:52:57;;;;;;;28.27;20.10;;;;;;;;;;7366178;19;20006;-74
2023/10/19 10:55:23;;;;;;;27.35;20.50;;;;;;;;;;7368605;19;20790;-74
2023/10/19 10:57:49;;;;;;;29.63;21.10;;;;;;;;;;7369583;19;20034;-74
2023/10/19 11:00:15;;;;;;;26.90;20.75;;;;;;;;;;7392544;19;20485;-74
2023/10/19 11:02:45;;;;;;;32.03;22.42;;;;;;;;;;7368913;19;20029;-74
2023/10/19 11:05:15;;;;;;;30.77;22.92;;;;;;;;;;7369795;19;20113;-74
2023/10/19 11:08:03;;;;;;;32.40;22.70;;;;;;;;;;7370678;19;20036;-74
2023/10/19 11:10:30;;;;;;;34.45;23.80;;;;;;;;;;7370669;19;20077;-74
2023/10/19 11:13:02;;;;;;;33.22;25.00;;;;;;;;;;7368598;19;20382;-66
2023/10/19 11:15:27;;;;;;;35.65;24.70;;;;;;;;;;7379821;19;20014;-66
2023/10/19 11:17:52;;;;;;;34.92;22.85;;;;;;;;;;7365467;19;20020;-66
2023/10/19 11:20:22;;;;;;;33.58;24.08;;;;;;;;;;7365053;19;20047;-65
2023/10/19 11:22:52;;;;;;;37.15;26.00;;;;;;;;;;7365903;19;20054;-65
2023/10/19 11:25:20;;;;;;;37.10;25.38;;;;;;;;;;7362854;19;20018;-65
2023/10/19 11:27:46;;;;;;;35.90;24.38;;;;;;;;;;7365705;19;20473;-72
2023/10/19 11:30:12;;;;;;;38.13;25.10;;;;;;;;;;7385574;19;20010;-72
2023/10/19 11:32:39;;;;;;;35.95;25.65;;;;;;;;;;7366052;19;20034;-74
2023/10/19 11:35:09;;;;;;;33.90;25.50;;;;;;;;;;7366194;19;20013;-74
2023/10/19 11:37:47;;;;;;;33.55;24.75;;;;;;;;;;7364604;19;20516;-73
2023/10/19 11:40:13;;;;;;;32.05;24.02;;;;;;;;;;7365620;19;20010;-74
2023/10/19 11:42:38;;;;;;;32.88;23.70;;;;;;;;;;7364311;19;20046;-74
2023/10/19 11:45:06;;;;;;;38.97;25.05;;;;;;;;;;7387546;19;20039;-74
2023/10/19 11:47:31;;;;;;;43.22;26.58;;;;;;;;;;7368005;19;20013;-74
2023/10/19 11:49:56;;;;;;;34.28;24.38;;;;;;;;;;7367882;19;20014;-75
2023/10/19 11:52:22;;;;;;;39.05;22.92;;;;;;;;;;7366019;19;20358;-75
2023/10/19 11:54:48;;;;;;;34.33;23.20;;;;;;;;;;7365935;19;20019;-74
2023/10/19 11:57:13;;;;;;;37.45;25.05;;;;;;;;;;7388078;19;20359;-74
2023/10/19 11:59:40;;;;;;;36.33;25.73;;;;;;;;;;7366420;19;20038;-75
2023/10/19 12:02:06;;;;;;;43.85;26.33;;;;;;;;;;7366395;19;20342;-76
2023/10/19 12:04:35;;;;;;;37.05;25.25;;;;;;;;;;7365947;19;20595;-74
2023/10/19 12:07:01;;;;;;;38.72;24.08;;;;;;;;;;7368168;19;20011;-75
2023/10/19 12:09:28;;;;;;;32.78;22.10;;;;;;;;;;7391517;19;20599;-74
2023/10/19 12:11:54;;;;;;;31.55;21.17;;;;;;;;;;7368746;19;20014;-75
2023/10/19 12:14:20;;;;;;;26.73;22.17;;;;;;;;;;7368581;19;20347;-75
2023/10/19 12:16:46;;;;;;;27.25;20.33;;;;;;;;;;7370685;19;20007;-75
2023/10/19 12:19:14;;;;;;;30.23;18.67;;;;;;;;;;7369684;19;20011;-75
2023/10/19 12:21:41;;;;;;;36.67;24.65;;;;;;;;;;7368253;19;20047;-74
2023/10/19 12:24:07;;;;;;;39.78;25.38;;;;;;;;;;7390188;19;20018;-75
2023/10/19 12:26:33;;;;;;;37.10;25.23;;;;;;;;;;7366927;19;20034;-75
2023/10/19 12:28:58;;;;;;;34.67;24.10;;;;;;;;;;7367974;19;20018;-75
2023/10/19 12:31:25;;;;;;;34.78;26.17;;;;;;;;;;7369903;19;20141;-75
2023/10/19 12:33:50;;;;;;;35.15;25.10;;;;;;;;;;7365823;19;20082;-75
2023/10/19 12:36:34;;;;;;;33.55;24.90;;;;;;;;;;7390892;19;20010;-75
2023/10/19 12:39:01;;;;;;;39.88;25.90;;;;;;;;;;7368739;19;20078;-75
2023/10/19 12:41:27;;;;;;;33.85;25.70;;;;;;;;;;7366635;19;20014;-76
2023/10/19 12:43:57;;;;;;;39.70;25.95;;;;;;;;;;7366227;19;20014;-76
2023/10/19 12:46:24;;;;;;;34.88;25.98;;;;;;;;;;7369463;19;20031;-76
2023/10/19 12:48:50;;;;;;;38.55;26.52;;;;;;;;;;7367411;19;20007;-76
2023/10/19 12:51:22;;;;;;;38.58;26.17;;;;;;;;;;7389778;19;20371;-76
2023/10/19 12:53:48;;;;;;;39.28;27.35;;;;;;;;;;7363734;19;20006;-76
2023/10/19 12:56:13;;;;;;;36.33;27.05;;;;;;;;;;7366723;19;20503;-75
2023/10/19 12:58:38;;;;;;;38.50;28.20;;;;;;;;;;7367620;19;20616;-74
2023/10/19 13:01:05;;;;;;;47.88;31.52;;;;;;;;;;7367993;19;20379;-74
2023/10/19 13:03:32;;;;;;;49.65;30.92;;;;;;;;;;7387160;19;20464;-74
2023/10/19 13:05:58;;;;;;;48.65;30.27;;;;;;;;;;7366755;19;20010;-74
2023/10/19 13:08:27;;;;;;;43.45;29.50;;;;;;;;;;7367625;19;20014;-74
2023/10/19 13:10:53;;;;;;;49.35;30.60;;;;;;;;;;7366613;19;20520;-74
2023/10/19 13:13:18;;;;;;;50.40;31.08;;;;;;;;;;7366278;19;20021;-75
2023/10/19 13:15:45;;;;;;;45.47;30.48;;;;;;;;;;7367788;19;20010;-74
2023/10/19 13:18:19;;;;;;;41.78;28.17;;;;;;;;;;7389008;19;20040;-74
2023/10/19 13:20:46;;;;;;;42.10;27.83;;;;;;;;;;7365934;19;20532;-74
2023/10/19 13:23:11;;;;;;;41.30;27.10;;;;;;;;;;7364176;19;20460;-75
2023/10/19 13:25:39;;;;;;;45.17;28.00;;;;;;;;;;7367131;19;20065;-74
2023/10/19 13:28:14;;;;;;;41.85;27.85;;;;;;;;;;7367747;19;20010;-75
2023/10/19 13:30:41;;;;;;;43.28;28.38;;;;;;;;;;7370437;19;19998;-75
2023/10/19 13:33:10;;;;;;;38.80;27.23;;;;;;;;;;7391008;19;20009;-75
2023/10/19 13:35:42;;;;;;;37.53;27.70;;;;;;;;;;7369148;19;20014;-75
2023/10/19 13:38:08;;;;;;;44.92;27.48;;;;;;;;;;7370137;19;20020;-75
2023/10/19 13:40:37;;;;;;;38.40;27.33;;;;;;;;;;7367966;19;20014;-75
2023/10/19 13:43:04;;;;;;;41.42;27.98;;;;;;;;;;7365504;19;20113;-75
2023/10/19 13:45:35;;;;;;;29.98;20.17;;;;;;;;;;7389058;19;20569;-75
2023/10/19 13:48:02;;;;;;;36.42;26.00;;;;;;;;;;7368265;19;20013;-75
2023/10/19 13:50:29;;;;;;;34.58;25.02;;;;;;;;;;7365884;19;20476;-76
2023/10/19 13:52:56;;;;;;;29.52;23.77;;;;;;;;;;7362035;19;19999;-76
2023/10/19 13:55:25;;;;;;;31.30;22.35;;;;;;;;;;7365334;19;20002;-75
2023/10/19 13:57:50;;;;;;;25.73;17.42;;;;;;;;;;7365356;19;20023;-75
2023/10/19 14:00:24;;;;;;;24.77;16.40;;;;;;;;;;7388981;19;20460;-74
2023/10/19 14:02:50;;;;;;;21.52;14.95;;;;;;;;;;7371898;19;20392;-75
2023/10/19 14:05:16;;;;;;;22.15;15.52;;;;;;;;;;7372325;19;20049;-75
2023/10/19 14:07:43;;;;;;;22.00;15.05;;;;;;;;;;7373891;19;20580;-75
2023/10/19 14:10:12;;;;;;;21.85;15.30;;;;;;;;;;7369505;19;20099;-75
2023/10/19 14:12:41;;;;;;;20.17;15.73;;;;;;;;;;7370864;19;20377;-75
2023/10/19 14:15:17;;;;;;;17.65;13.73;;;;;;;;;;7393422;19;20031;-75
2023/10/19 14:17:44;;;;;;;19.38;15.57;;;;;;;;;;7372299;19;20006;-75
2023/10/19 14:20:12;;;;;;;24.58;16.77;;;;;;;;;;7370665;19;20019;-74
2023/10/19 14:22:41;;;;;;;20.45;15.73;;;;;;;;;;7370019;19;20048;-75